Time;durP1;ratioP1;P1;durP2;ratioP2;P2;SDS_P1;SDS_P2;PMS_P1;PMS_P2;Temp;Humidity;BMP_temperature;BMP_pressure;BME280_temperature;BME280_humidity;BME280_pressure;Samples;Min_cycle;Max_cycle;Signal;HPM_P1;HPM_P2
2022/07/10 00:02:04;;;;;;;16.33;11.73;;;13.30;99.90;;;;;;5074010;28;20028;-92
2022/07/10 00:04:32;;;;;;;13.77;11.73;;;13.20;99.90;;;;;;5070123;28;20122;-93
2022/07/10 00:06:58;;;;;;;13.35;11.07;;;13.40;99.90;;;;;;5072709;28;20035;-92
2022/07/10 00:09:25;;;;;;;16.63;11.70;;;13.40;99.90;;;;;;5086243;28;20017;-92
2022/07/10 00:12:28;;;;;;;16.30;10.85;;;13.50;99.90;;;;;;5088577;28;20039;-93
2022/07/10 00:14:54;;;;;;;16.40;11.30;;;13.50;99.90;;;;;;5071389;28;20486;-92
2022/07/10 00:17:20;;;;;;;15.13;11.85;;;13.50;99.90;;;;;;5070157;28;20021;-94
2022/07/10 00:19:45;;;;;;;14.48;11.32;;;13.40;99.90;;;;;;5072594;28;20044;-94
2022/07/10 00:22:11;;;;;;;15.40;11.88;;;13.40;99.90;;;;;;5071026;28;20024;-92
2022/07/10 00:24:37;;;;;;;16.08;12.50;;;13.40;99.90;;;;;;5070024;28;20032;-91
2022/07/10 00:27:03;;;;;;;16.42;12.32;;;13.50;99.90;;;;;;5071381;28;20119;-92
2022/07/10 00:29:29;;;;;;;16.15;12.98;;;13.50;99.90;;;;;;5070589;28;20027;-92
2022/07/10 00:31:55;;;;;;;17.80;12.68;;;13.40;99.90;;;;;;5074973;28;20029;-91
2022/07/10 00:34:21;;;;;;;19.48;13.30;;;13.40;99.90;;;;;;5070694;28;20094;-91
2022/07/10 00:40:35;;;;;;;21.85;12.90;;;13.30;99.90;;;;;;5086959;28;20028;-93
2022/07/10 00:43:00;;;;;;;17.52;14.32;;;13.20;99.90;;;;;;5069963;28;20091;-91
2022/07/10 00:45:27;;;;;;;21.55;13.15;;;13.10;99.90;;;;;;5067518;28;20065;-92
2022/07/10 00:47:52;;;;;;;16.35;13.77;;;13.10;99.90;;;;;;5068471;28;20051;-91
2022/07/10 00:50:19;;;;;;;16.58;13.57;;;13.00;99.90;;;;;;5069546;28;20028;-92
2022/07/10 00:52:46;;;;;;;15.98;14.23;;;13.10;99.90;;;;;;5069778;28;20028;-92
2022/07/10 00:55:14;;;;;;;17.80;14.38;;;13.00;99.90;;;;;;5067927;28;20048;-91
2022/07/10 00:57:40;;;;;;;19.35;15.27;;;12.90;99.90;;;;;;5068030;28;20377;-91
2022/07/10 01:00:07;;;;;;;18.00;14.52;;;12.90;99.90;;;;;;5069285;28;20541;-91
2022/07/10 01:03:10;;;;;;;22.10;15.68;;;12.80;99.90;;;;;;5069958;28;20024;-92
2022/07/10 01:05:37;;;;;;;21.10;15.20;;;12.80;99.90;;;;;;5069651;28;20032;-92
2022/07/10 01:08:03;;;;;;;19.15;15.43;;;12.60;99.90;;;;;;5069260;28;20031;-92
2022/07/10 01:10:29;;;;;;;21.05;16.75;;;12.60;99.90;;;;;;5070651;28;20088;-91
2022/07/10 01:12:55;;;;;;;24.38;16.85;;;12.60;99.90;;;;;;5067679;28;20036;-94
2022/07/10 01:15:21;;;;;;;28.70;18.20;;;12.60;99.90;;;;;;5069331;28;20475;-93
2022/07/10 01:17:48;;;;;;;21.83;18.25;;;12.60;99.90;;;;;;5069435;28;20032;-93
2022/07/10 01:20:14;;;;;;;25.80;18.90;;;12.60;99.90;;;;;;5068758;28;20028;-91
2022/07/10 01:22:40;;;;;;;27.77;18.85;;;12.50;99.90;;;;;;5068367;28;20559;-92
2022/07/10 01:25:07;;;;;;;25.48;20.05;;;12.50;99.90;;;;;;5067479;28;20028;-92
2022/07/10 01:27:33;;;;;;;27.70;19.17;;;12.50;99.90;;;;;;5067646;28;20033;-90
2022/07/10 01:29:59;;;;;;;25.50;18.40;;;12.40;99.90;;;;;;5065008;28;20032;-91
2022/07/10 01:32:25;;;;;;;28.83;19.67;;;12.40;99.90;;;;;;5065665;28;20029;-92
2022/07/10 01:34:57;;;;;;;28.05;19.67;;;12.30;99.90;;;;;;5063907;28;20032;-91
2022/07/10 01:37:23;;;;;;;26.17;19.80;;;12.30;99.90;;;;;;5064859;28;20028;-91
2022/07/10 01:39:48;;;;;;;30.48;21.42;;;12.30;99.90;;;;;;5063951;28;20050;-91
2022/07/10 01:42:14;;;;;;;30.10;21.63;;;12.30;99.90;;;;;;5065297;28;20024;-91
2022/07/10 01:44:40;;;;;;;26.52;20.33;;;12.30;99.90;;;;;;5063405;28;20036;-92
2022/07/10 01:47:06;;;;;;;30.90;20.42;;;12.20;99.90;;;;;;5062290;28;20090;-92
2022/07/10 01:49:33;;;;;;;25.75;20.67;;;12.20;99.90;;;;;;5061922;28;20575;-91
2022/07/10 01:51:59;;;;;;;24.95;19.77;;;12.10;99.90;;;;;;5062391;28;20028;-92
2022/07/10 01:54:25;;;;;;;28.90;22.27;;;12.00;99.90;;;;;;5063718;28;20036;-92
2022/07/10 01:56:50;;;;;;;26.77;20.13;;;12.00;99.90;;;;;;5062740;28;20028;-91
2022/07/10 01:59:19;;;;;;;31.17;22.75;;;11.90;99.90;;;;;;5061484;28;20033;-92
2022/07/10 02:01:45;;;;;;;33.33;21.20;;;11.90;99.90;;;;;;5061355;28;20123;-91
2022/07/10 02:10:44;;;;;;;32.40;22.05;;;11.80;99.90;;;;;;5079751;28;20046;-91
2022/07/10 02:13:09;;;;;;;28.58;21.88;;;11.60;99.90;;;;;;5059930;28;20036;-92
2022/07/10 02:15:35;;;;;;;33.65;22.17;;;11.60;99.90;;;;;;5059729;28;20032;-90
2022/07/10 02:18:01;;;;;;;35.47;23.60;;;11.60;99.90;;;;;;5062358;28;20037;-92
2022/07/10 02:20:26;;;;;;;34.05;23.75;;;11.60;99.90;;;;;;5061245;28;20042;-90
2022/07/10 02:22:52;;;;;;;29.92;22.02;;;11.60;99.90;;;;;;5061428;28;20071;-92
2022/07/10 02:25:18;;;;;;;29.23;21.00;;;11.50;99.90;;;;;;5060705;28;20540;-91
2022/07/10 02:27:43;;;;;;;30.60;21.85;;;11.40;99.90;;;;;;5060255;28;20119;-91
2022/07/10 02:30:18;;;;;;;33.75;22.42;;;11.40;99.90;;;;;;5059665;28;20119;-91
2022/07/10 02:32:44;;;;;;;32.38;23.02;;;11.40;99.90;;;;;;5058398;28;20032;-91
2022/07/10 02:35:50;;;;;;;31.77;22.90;;;11.40;99.90;;;;;;5059557;28;20127;-90
2022/07/10 02:38:16;;;;;;;31.05;22.30;;;11.30;99.90;;;;;;5064387;28;20506;-92
2022/07/10 02:40:42;;;;;;;35.78;23.38;;;11.30;99.90;;;;;;5065193;28;20029;-92
2022/07/10 02:43:09;;;;;;;39.92;24.83;;;11.40;99.90;;;;;;5065508;28;20028;-92
2022/07/10 02:45:34;;;;;;;43.03;23.95;;;11.40;99.90;;;;;;5064132;28;20158;-90
2022/07/10 02:48:00;;;;;;;41.25;24.13;;;11.50;99.90;;;;;;5063646;28;20031;-90
2022/07/10 02:50:26;;;;;;;39.58;23.30;;;11.50;99.90;;;;;;5063140;28;20037;-90
2022/07/10 02:52:51;;;;;;;28.88;21.25;;;11.50;99.90;;;;;;5062887;28;20387;-90
2022/07/10 02:55:17;;;;;;;36.80;22.08;;;11.40;99.90;;;;;;5079087;28;20066;-91
2022/07/10 02:57:43;;;;;;;31.92;22.02;;;11.30;99.90;;;;;;5062532;28;20036;-91
2022/07/10 03:00:09;;;;;;;29.65;20.88;;;11.20;99.90;;;;;;5062269;28;20058;-91
2022/07/10 03:02:35;;;;;;;35.63;22.35;;;11.20;99.90;;;;;;5061837;28;20028;-91
2022/07/10 03:05:01;;;;;;;37.67;22.80;;;11.10;99.90;;;;;;5078739;28;20034;-91
2022/07/10 03:07:26;;;;;;;31.25;21.08;;;11.10;99.90;;;;;;5078703;28;20438;-90
2022/07/10 03:09:53;;;;;;;34.63;21.30;;;11.10;99.90;;;;;;5061650;28;20035;-90
2022/07/10 03:12:19;;;;;;;38.80;23.35;;;11.10;99.90;;;;;;5061962;28;20480;-91
2022/07/10 03:14:44;;;;;;;35.75;23.35;;;11.10;99.90;;;;;;5063014;28;20032;-91
2022/07/10 03:17:10;;;;;;;30.48;21.60;;;11.20;99.90;;;;;;5063172;28;20021;-90
2022/07/10 03:19:36;;;;;;;32.40;21.48;;;11.20;99.90;;;;;;5068973;28;20041;-90
2022/07/10 03:22:02;;;;;;;38.08;22.05;;;11.20;99.90;;;;;;5065347;28;20082;-90
2022/07/10 03:24:27;;;;;;;34.50;20.00;;;11.30;99.90;;;;;;5065178;28;20036;-92
2022/07/10 03:26:53;;;;;;;27.92;19.50;;;11.30;99.90;;;;;;5066961;28;20541;-91
2022/07/10 03:29:19;;;;;;;32.45;18.17;;;11.40;99.90;;;;;;5066260;28;20087;-90
2022/07/10 03:31:44;;;;;;;25.15;16.40;;;11.50;99.90;;;;;;5059369;28;20025;-89
2022/07/10 03:34:10;;;;;;;21.15;15.63;;;11.60;99.90;;;;;;5059309;28;20041;-88
2022/07/10 03:36:36;;;;;;;24.40;13.23;;;11.60;99.90;;;;;;5059378;28;20032;-88
2022/07/10 03:39:01;;;;;;;24.92;13.95;;;11.60;99.90;;;;;;5058833;28;20028;-90
2022/07/10 03:41:27;;;;;;;21.58;11.68;;;11.70;99.90;;;;;;5075159;28;20029;-89
2022/07/10 03:43:53;;;;;;;22.13;11.63;;;11.60;99.90;;;;;;5058848;28;20028;-88
2022/07/10 03:46:19;;;;;;;18.10;10.50;;;11.60;99.90;;;;;;5059310;28;20025;-90
2022/07/10 03:48:44;;;;;;;16.52;9.85;;;11.50;99.90;;;;;;5074793;28;20712;-89
2022/07/10 03:51:10;;;;;;;17.83;10.55;;;11.50;99.90;;;;;;5075775;28;20059;-89
2022/07/10 03:53:37;;;;;;;25.60;9.57;;;11.40;99.90;;;;;;5092375;28;20043;-89
2022/07/10 03:56:03;;;;;;;22.83;10.23;;;11.40;99.90;;;;;;5058608;28;20484;-89
2022/07/10 03:58:29;;;;;;;11.00;8.43;;;11.30;99.90;;;;;;5058821;28;20040;-89
2022/07/10 04:00:54;;;;;;;20.38;8.27;;;11.20;99.90;;;;;;5058982;28;20387;-89
2022/07/10 04:03:20;;;;;;;15.55;8.70;;;11.10;99.90;;;;;;5075568;28;20123;-89
2022/07/10 04:05:46;;;;;;;11.85;8.10;;;11.10;99.90;;;;;;5058754;28;20047;-89
2022/07/10 04:08:11;;;;;;;13.80;8.55;;;11.10;99.90;;;;;;5058639;28;20086;-90
2022/07/10 04:10:38;;;;;;;10.00;8.10;;;11.10;99.90;;;;;;5075247;28;20028;-89
2022/07/10 04:13:04;;;;;;;12.93;8.02;;;11.10;99.90;;;;;;5058491;28;20032;-90
2022/07/10 04:15:29;;;;;;;19.15;8.23;;;11.10;99.90;;;;;;5091818;28;20055;-89
2022/07/10 04:17:55;;;;;;;17.35;8.10;;;11.00;99.90;;;;;;5058493;28;20426;-89
2022/07/10 04:20:21;;;;;;;16.65;8.68;;;11.00;99.90;;;;;;5075304;28;20442;-89
2022/07/10 04:22:47;;;;;;;15.27;7.60;;;11.00;99.90;;;;;;5058423;28;20476;-89
2022/07/10 04:25:13;;;;;;;25.15;8.57;;;11.00;99.90;;;;;;5091477;28;20063;-89
2022/07/10 04:27:39;;;;;;;17.55;6.97;;;11.10;99.90;;;;;;5075094;28;20024;-90
2022/07/10 04:30:06;;;;;;;15.90;7.18;;;11.10;99.90;;;;;;5058259;28;20055;-88
2022/07/10 04:32:32;;;;;;;12.05;6.70;;;11.20;99.90;;;;;;5057932;28;20039;-89
2022/07/10 04:34:58;;;;;;;9.40;6.53;;;11.30;99.90;;;;;;5057452;28;20029;-90
2022/07/10 04:37:24;;;;;;;17.27;6.70;;;11.30;99.90;;;;;;5057675;28;20120;-89
2022/07/10 04:39:49;;;;;;;20.40;7.30;;;11.30;99.90;;;;;;5058230;28;20070;-89
2022/07/10 04:42:15;;;;;;;10.52;5.95;;;11.30;99.90;;;;;;5057758;28;20029;-89
2022/07/10 04:44:41;;;;;;;10.85;6.13;;;11.40;99.90;;;;;;5057623;28;20032;-89
2022/07/10 04:47:07;;;;;;;14.10;6.28;;;11.50;99.90;;;;;;5074733;28;20020;-89
2022/07/10 04:49:33;;;;;;;20.08;7.45;;;11.50;99.90;;;;;;5091034;28;20111;-90
2022/07/10 04:51:59;;;;;;;14.40;5.38;;;11.60;99.90;;;;;;5058023;28;20024;-90
2022/07/10 04:54:25;;;;;;;16.20;6.15;;;11.70;99.90;;;;;;5058134;28;20035;-89
2022/07/10 04:56:52;;;;;;;9.82;5.70;;;11.90;99.90;;;;;;5057977;28;20075;-89
2022/07/10 04:59:18;;;;;;;9.20;4.63;;;12.00;99.90;;;;;;5056662;28;20033;-88
2022/07/10 05:01:43;;;;;;;8.88;4.57;;;12.00;99.90;;;;;;5057459;28;20447;-89
2022/07/10 05:04:09;;;;;;;7.00;4.47;;;12.20;99.90;;;;;;5057447;28;20039;-90
2022/07/10 05:06:35;;;;;;;6.43;4.20;;;12.20;99.90;;;;;;5074254;28;20025;-91
2022/07/10 05:09:02;;;;;;;7.28;4.10;;;12.20;99.90;;;;;;5057629;28;20025;-91
2022/07/10 05:11:28;;;;;;;10.38;4.50;;;12.00;99.90;;;;;;5057168;28;20037;-89
2022/07/10 05:14:25;;;;;;;10.02;4.03;;;12.00;99.90;;;;;;5057309;28;20114;-89
2022/07/10 05:16:51;;;;;;;9.20;4.00;;;11.90;99.90;;;;;;5057507;28;20044;-88
2022/07/10 05:19:17;;;;;;;19.58;5.00;;;11.90;99.90;;;;;;5057387;28;20037;-89
2022/07/10 05:21:42;;;;;;;8.82;3.58;;;11.90;99.90;;;;;;5057669;28;20020;-89
2022/07/10 05:24:08;;;;;;;9.20;3.63;;;12.00;99.90;;;;;;5056792;28;20085;-90
2022/07/10 05:26:35;;;;;;;8.88;3.55;;;12.10;99.90;;;;;;5056853;28;20027;-89
2022/07/10 05:29:01;;;;;;;6.90;3.92;;;12.10;99.90;;;;;;5056939;28;20123;-89
2022/07/10 05:31:27;;;;;;;8.13;3.15;;;12.30;99.90;;;;;;5056872;28;20032;-89
2022/07/10 05:33:52;;;;;;;7.60;3.88;;;12.60;99.90;;;;;;5057070;28;20033;-91
2022/07/10 05:36:18;;;;;;;8.45;3.05;;;12.70;99.90;;;;;;5073610;28;20029;-90
2022/07/10 05:38:44;;;;;;;6.60;3.03;;;12.70;99.90;;;;;;5073613;28;20068;-89
2022/07/10 05:41:09;;;;;;;8.07;3.05;;;12.80;99.90;;;;;;5074348;28;20043;-89
2022/07/10 05:43:35;;;;;;;8.02;3.13;;;13.00;99.90;;;;;;5056569;28;20430;-89
2022/07/10 05:46:01;;;;;;;10.07;3.10;;;13.10;99.90;;;;;;5073223;28;20360;-88
2022/07/10 05:48:27;;;;;;;9.38;2.63;;;13.30;99.90;;;;;;5057128;28;20025;-89
2022/07/10 05:50:52;;;;;;;7.82;2.80;;;13.40;99.90;;;;;;5057420;28;20021;-88
2022/07/10 05:53:19;;;;;;;7.05;2.28;;;13.40;99.90;;;;;;5073324;28;20369;-89
2022/07/10 05:55:47;;;;;;;6.93;2.67;;;13.30;99.90;;;;;;5056683;28;20384;-89
2022/07/10 05:58:14;;;;;;;7.60;2.40;;;13.30;99.90;;;;;;5056560;28;20029;-89
2022/07/10 06:00:40;;;;;;;4.15;2.45;;;13.40;99.90;;;;;;5056034;28;20038;-88
2022/07/10 06:03:05;;;;;;;6.35;2.67;;;13.30;99.90;;;;;;5073316;28;20472;-90
2022/07/10 06:05:31;;;;;;;7.13;2.60;;;13.30;99.90;;;;;;5073369;28;20028;-89
2022/07/10 06:07:57;;;;;;;6.18;2.17;;;13.40;99.90;;;;;;5039868;28;20472;-90
2022/07/10 06:10:22;;;;;;;5.93;2.53;;;13.50;99.90;;;;;;5056132;28;20029;-90
2022/07/10 06:12:48;;;;;;;7.47;2.20;;;13.60;99.90;;;;;;5056199;28;20035;-90
2022/07/10 06:15:14;;;;;;;5.32;2.30;;;13.80;99.90;;;;;;5073072;28;20488;-88
2022/07/10 06:17:40;;;;;;;3.80;1.95;;;13.80;99.90;;;;;;5056478;28;20040;-89
2022/07/10 06:20:06;;;;;;;6.50;2.00;;;13.90;99.90;;;;;;5089826;28;20028;-91
2022/07/10 06:22:31;;;;;;;4.57;2.08;;;13.90;99.90;;;;;;5056468;28;20032;-89
2022/07/10 06:24:59;;;;;;;9.05;1.70;;;13.50;99.90;;;;;;5056558;28;20044;-89
2022/07/10 06:27:25;;;;;;;3.63;1.90;;;13.20;99.90;;;;;;5056250;28;20075;-91
2022/07/10 06:29:51;;;;;;;3.50;2.17;;;13.00;99.90;;;;;;5073879;28;20032;-91
2022/07/10 06:32:16;;;;;;;7.03;2.50;;;12.70;99.90;;;;;;5056130;28;20383;-91
2022/07/10 06:34:42;;;;;;;7.95;2.28;;;12.60;99.90;;;;;;5055720;28;20499;-92
2022/07/10 06:37:08;;;;;;;12.35;2.80;;;12.70;99.90;;;;;;5073784;28;20090;-89
2022/07/10 06:39:37;;;;;;;7.88;1.80;;;12.80;99.90;;;;;;5072598;28;20464;-89
2022/07/10 06:42:06;;;;;;;5.38;2.22;;;13.10;99.90;;;;;;5072443;28;20095;-89
2022/07/10 06:44:39;;;;;;;4.97;1.88;;;13.20;99.90;;;;;;5072542;28;20025;-89
2022/07/10 06:49:52;;;;;;;3.40;1.70;;;13.40;99.90;;;;;;5072782;28;20078;-89
2022/07/10 06:52:18;;;;;;;7.35;2.08;;;13.40;99.90;;;;;;5072674;28;20032;-90
2022/07/10 06:54:43;;;;;;;3.92;1.67;;;13.30;99.90;;;;;;5089773;28;20139;-91
2022/07/10 06:57:09;;;;;;;2.80;1.50;;;13.30;99.90;;;;;;5056210;28;20033;-90
2022/07/10 06:59:35;;;;;;;3.35;1.50;;;13.20;99.90;;;;;;5089408;28;20033;-91
2022/07/10 07:02:01;;;;;;;7.95;1.80;;;13.20;99.90;;;;;;5089437;28;20115;-90
2022/07/10 07:04:27;;;;;;;3.95;1.50;;;13.30;99.90;;;;;;5072417;28;20036;-88
2022/07/10 07:06:53;;;;;;;7.78;2.65;;;13.40;99.90;;;;;;5089621;28;20028;-90
2022/07/10 07:09:18;;;;;;;7.13;2.08;;;13.50;99.90;;;;;;5055897;28;20028;-90
2022/07/10 07:11:45;;;;;;;5.30;1.80;;;13.70;99.90;;;;;;5089091;28;20043;-90
2022/07/10 07:14:11;;;;;;;4.60;1.50;;;14.00;99.90;;;;;;5055709;28;20040;-90
2022/07/10 07:16:45;;;;;;;7.22;1.23;;;14.40;99.90;;;;;;5055552;28;20100;-91
2022/07/10 07:19:17;;;;;;;3.60;1.20;;;15.00;99.90;;;;;;5056189;28;20039;-89
2022/07/10 07:24:28;;;;;;;4.55;1.25;;;15.90;99.90;;;;;;5076801;28;20055;-90
2022/07/10 07:26:54;;;;;;;3.53;1.38;;;15.80;99.90;;;;;;5059471;28;20029;-90
2022/07/10 07:29:20;;;;;;;11.23;1.67;;;15.80;99.90;;;;;;5059760;28;20426;-90
2022/07/10 07:31:45;;;;;;;6.97;2.33;;;15.90;99.90;;;;;;5093469;28;20820;-92
2022/07/10 07:34:11;;;;;;;3.80;1.40;;;15.90;99.90;;;;;;5059625;28;20067;-90
2022/07/10 07:36:37;;;;;;;3.97;1.60;;;15.80;99.90;;;;;;5059628;28;20028;-89
2022/07/10 07:39:04;;;;;;;3.88;1.33;;;15.70;99.90;;;;;;5059642;28;20036;-91
2022/07/10 07:41:30;;;;;;;4.15;1.10;;;15.80;99.90;;;;;;5077036;28;20020;-89
2022/07/10 07:43:56;;;;;;;5.68;1.38;;;15.80;99.90;;;;;;5058854;28;20032;-89
2022/07/10 07:46:21;;;;;;;5.55;1.65;;;15.60;99.90;;;;;;5075982;28;20051;-89
2022/07/10 07:49:12;;;;;;;4.18;1.63;;;15.30;99.90;;;;;;5058854;28;20021;-89
2022/07/10 07:51:38;;;;;;;6.55;1.60;;;14.90;99.90;;;;;;5075320;28;20060;-89
2022/07/10 07:54:03;;;;;;;12.40;1.75;;;14.40;99.90;;;;;;5076050;28;20064;-89
2022/07/10 07:56:38;;;;;;;10.73;1.75;;;14.10;99.90;;;;;;5058528;28;20135;-90
2022/07/10 07:59:04;;;;;;;4.45;1.65;;;14.20;99.90;;;;;;5058692;28;20126;-90
2022/07/10 08:01:30;;;;;;;8.13;1.40;;;14.30;99.90;;;;;;5076211;28;20111;-90
2022/07/10 08:03:55;;;;;;;5.72;1.65;;;14.50;99.90;;;;;;5058564;28;20044;-89
2022/07/10 08:06:21;;;;;;;9.20;1.90;;;14.30;99.90;;;;;;5058596;28;20434;-89
2022/07/10 08:08:47;;;;;;;8.63;2.03;;;14.20;99.90;;;;;;5075745;28;20055;-88
2022/07/10 08:11:13;;;;;;;7.68;1.95;;;14.20;99.90;;;;;;5058389;28;20028;-89
2022/07/10 08:13:38;;;;;;;8.02;2.55;;;14.20;99.90;;;;;;5058489;28;20032;-89
2022/07/10 08:16:04;;;;;;;6.80;2.00;;;14.00;99.90;;;;;;5058425;28;20115;-88
2022/07/10 08:18:30;;;;;;;4.63;1.58;;;13.90;99.90;;;;;;5058316;28;20032;-90
2022/07/10 08:20:56;;;;;;;3.25;1.50;;;14.10;99.90;;;;;;5075472;28;20036;-89
2022/07/10 08:23:21;;;;;;;4.85;1.42;;;14.20;99.90;;;;;;5058384;28;20078;-90
2022/07/10 08:25:47;;;;;;;8.65;1.70;;;14.40;99.90;;;;;;5058460;28;20029;-89
2022/07/10 08:28:13;;;;;;;4.80;1.70;;;14.60;99.90;;;;;;5058050;28;20028;-89
2022/07/10 08:30:39;;;;;;;7.60;1.55;;;15.00;99.90;;;;;;5074875;28;20070;-89
2022/07/10 08:33:04;;;;;;;5.70;1.80;;;15.50;99.90;;;;;;5057545;28;20173;-90
2022/07/10 08:35:31;;;;;;;4.60;1.23;;;16.10;99.90;;;;;;5092205;28;20043;-89
2022/07/10 08:37:57;;;;;;;4.22;1.30;;;16.60;99.90;;;;;;5075066;28;20039;-90
2022/07/10 08:40:23;;;;;;;3.83;1.45;;;16.70;99.90;;;;;;5058619;28;20064;-90
2022/07/10 08:42:49;;;;;;;10.88;1.50;;;16.70;99.90;;;;;;5074362;28;20036;-89
2022/07/10 08:45:14;;;;;;;5.68;1.30;;;16.60;99.90;;;;;;5075355;28;20039;-88
2022/07/10 08:47:42;;;;;;;9.35;2.00;;;16.10;99.90;;;;;;5058731;28;20029;-88
2022/07/10 08:50:25;;;;;;;8.77;1.35;;;16.30;99.90;;;;;;5074576;28;20119;-89
2022/07/10 08:53:08;;;;;;;1.60;1.05;;;16.30;99.90;;;;;;5058251;28;20029;-88
2022/07/10 08:55:36;;;;;;;6.90;1.52;;;16.40;99.90;;;;;;5057937;28;20082;-90
2022/07/10 08:58:04;;;;;;;4.53;1.42;;;16.40;99.90;;;;;;5059214;28;20056;-91
2022/07/10 09:00:30;;;;;;;3.65;1.40;;;16.10;99.90;;;;;;5059151;28;20124;-87
2022/07/10 09:02:56;;;;;;;7.13;1.65;;;16.00;99.90;;;;;;5074620;28;20383;-89
2022/07/10 09:05:40;;;;;;;12.13;1.35;;;15.80;99.90;;;;;;5058407;28;20052;-89
2022/07/10 09:08:28;;;;;;;5.28;1.42;;;16.00;99.90;;;;;;5076052;28;20051;-90
2022/07/10 09:11:17;;;;;;;4.22;1.30;;;17.80;99.90;;;;;;5058242;28;20123;-89
2022/07/10 09:13:53;;;;;;;4.25;1.40;;;18.20;99.90;;;;;;5074744;28;20392;-91
2022/07/10 09:16:25;;;;;;;3.20;1.15;;;17.60;99.90;;;;;;5074964;28;20056;-91
2022/07/10 09:18:51;;;;;;;10.57;1.40;;;17.20;99.90;;;;;;5076300;28;20422;-90
2022/07/10 09:21:24;;;;;;;4.30;1.02;;;16.60;99.90;;;;;;5058335;28;20040;-88
2022/07/10 09:23:49;;;;;;;4.97;1.17;;;16.20;99.90;;;;;;5074330;28;20024;-90
2022/07/10 09:26:16;;;;;;;7.38;1.45;;;16.10;99.90;;;;;;5091189;28;20057;-90
2022/07/10 09:28:42;;;;;;;6.82;1.40;;;16.20;99.90;;;;;;5057574;28;20132;-89
2022/07/10 09:31:08;;;;;;;3.15;1.17;;;16.30;99.90;;;;;;5092550;28;20056;-93
2022/07/10 09:33:35;;;;;;;3.88;1.40;;;16.50;99.90;;;;;;5058365;28;20085;-91
2022/07/10 09:36:23;;;;;;;3.03;1.30;;;16.40;99.90;;;;;;5057027;28;20039;-92
2022/07/10 09:38:51;;;;;;;2.15;1.20;;;16.50;99.90;;;;;;5056890;28;20143;-89
2022/07/10 09:41:29;;;;;;;6.97;1.58;;;16.20;99.90;;;;;;5056269;28;20047;-91
2022/07/10 09:44:08;;;;;;;8.13;1.70;;;16.00;99.90;;;;;;5056801;28;20036;-90
2022/07/10 09:46:38;;;;;;;3.83;1.30;;;15.90;99.90;;;;;;5057025;28;20069;-91
2022/07/10 09:49:05;;;;;;;7.22;1.52;;;16.00;99.90;;;;;;5057942;28;20072;-91
2022/07/10 09:51:36;;;;;;;8.15;1.20;;;16.20;99.90;;;;;;5074963;28;20723;-92
2022/07/10 09:54:04;;;;;;;4.35;1.20;;;16.90;99.90;;;;;;5057056;28;20086;-91
2022/07/10 09:56:44;;;;;;;6.30;1.00;;;17.80;99.90;;;;;;5074442;28;20040;-91
2022/07/10 09:59:13;;;;;;;5.22;1.40;;;18.10;99.90;;;;;;5074496;28;20055;-95
2022/07/10 10:01:46;;;;;;;5.43;1.20;;;17.90;99.90;;;;;;5057506;28;20020;-90
2022/07/10 10:04:14;;;;;;;2.97;0.90;;;17.70;99.90;;;;;;5090914;28;20036;-89
2022/07/10 10:06:41;;;;;;;4.75;1.50;;;17.50;99.90;;;;;;5091388;28;20472;-91
2022/07/10 10:09:41;;;;;;;2.75;1.08;;;17.30;99.90;;;;;;5057209;28;20028;-91
2022/07/10 10:12:42;;;;;;;10.65;0.80;;;17.60;99.90;;;;;;5062740;28;20043;-88
2022/07/10 10:15:10;;;;;;;3.47;1.50;;;18.00;99.90;;;;;;5056651;28;20033;-90
2022/07/10 10:17:47;;;;;;;4.35;1.20;;;18.40;99.90;;;;;;5057453;28;20074;-88
2022/07/10 10:23:00;;;;;;;6.45;1.00;;;17.90;99.90;;;;;;5075243;28;20033;-89
2022/07/10 10:25:28;;;;;;;6.78;2.55;;;17.40;99.90;;;;;;5091174;28;20848;-89
2022/07/10 10:27:54;;;;;;;18.33;9.23;;;17.90;99.90;;;;;;5073419;28;20070;-89
2022/07/10 10:30:21;;;;;;;15.02;5.40;;;18.40;99.90;;;;;;5057427;28;20112;-91
2022/07/10 10:32:46;;;;;;;7.20;2.88;;;19.20;99.90;;;;;;5056634;28;20082;-90
2022/07/10 10:35:42;;;;;;;3.90;1.00;;;19.50;99.90;;;;;;5057254;28;20366;-90
2022/07/10 10:38:08;;;;;;;4.13;1.05;;;18.90;99.90;;;;;;5090727;28;20020;-91
2022/07/10 10:41:11;;;;;;;2.50;1.00;;;18.60;99.90;;;;;;5056728;28;20062;-89
2022/07/10 10:43:39;;;;;;;5.47;1.20;;;17.90;99.90;;;;;;5057181;28;20047;-92
2022/07/10 10:46:25;;;;;;;4.35;1.02;;;17.50;99.90;;;;;;5057753;28;20021;-90
2022/07/10 10:49:07;;;;;;;3.22;1.20;;;17.50;99.90;;;;;;5058867;28;20106;-92
2022/07/10 10:52:03;;;;;;;3.80;1.02;;;17.50;99.90;;;;;;5057526;28;20387;-90
2022/07/10 10:54:51;;;;;;;4.82;1.20;;;18.10;99.90;;;;;;5073926;28;20037;-91
2022/07/10 10:57:18;;;;;;;3.80;0.82;;;19.20;99.90;;;;;;5073960;28;20044;-91
2022/07/10 10:59:55;;;;;;;9.30;1.25;;;19.50;99.90;;;;;;5060671;28;20032;-89
2022/07/10 11:02:25;;;;;;;3.65;0.65;;;19.60;99.90;;;;;;5060722;28;20408;-90
2022/07/10 11:04:51;;;;;;;6.07;0.82;;;19.90;99.90;;;;;;5077347;28;20063;-93
2022/07/10 11:07:55;;;;;;;5.15;0.98;;;20.00;99.90;;;;;;5094979;28;20610;-89
2022/07/10 11:11:10;;;;;;;3.65;0.90;;;20.10;99.90;;;;;;5060447;28;20040;-90
2022/07/10 11:13:38;;;;;;;1.42;0.95;;;20.30;99.90;;;;;;5059884;28;20041;-89
2022/07/10 11:16:12;;;;;;;6.03;1.00;;;20.10;99.70;;;;;;5077537;28;20039;-90
2022/07/10 11:18:40;;;;;;;3.35;0.90;;;19.90;99.90;;;;;;5060479;28;20032;-90
2022/07/10 11:21:21;;;;;;;3.65;0.90;;;19.50;99.90;;;;;;5060037;28;20475;-92
2022/07/10 11:24:33;;;;;;;3.28;0.73;;;19.10;99.90;;;;;;5093019;28;20123;-90
2022/07/10 11:27:15;;;;;;;7.53;0.93;;;19.00;99.90;;;;;;5093345;28;20395;-90
2022/07/10 11:29:40;;;;;;;;;;;18.40;99.90;;;;;;5060518;28;20127;-89
2022/07/10 11:32:07;;;;;;;3.58;1.00;;;18.80;99.90;;;;;;5092573;28;20017;-91
2022/07/10 11:34:36;;;;;;;2.30;0.82;;;19.80;99.90;;;;;;5059642;28;20028;-88
2022/07/10 11:37:16;;;;;;;3.78;0.70;;;20.30;97.60;;;;;;5059693;28;20032;-89
2022/07/10 11:39:41;;;;;;;3.30;1.20;;;20.60;97.60;;;;;;5059197;28;20388;-90
2022/07/10 11:42:07;;;;;;;3.13;0.90;;;20.30;96.40;;;;;;5059875;28;20027;-91
2022/07/10 11:47:59;;;;;;;3.22;0.70;;;21.50;95.70;;;;;;5076395;28;20043;-92
2022/07/10 11:50:26;;;;;;;5.70;0.80;;;22.20;93.10;;;;;;5076179;28;20054;-90
2022/07/10 11:52:54;;;;;;;3.13;0.63;;;21.80;94.30;;;;;;5059295;28;20027;-91
2022/07/10 11:55:21;;;;;;;2.10;0.70;;;20.90;94.30;;;;;;5059650;28;20800;-89
2022/07/10 11:57:51;;;;;;;2.22;0.57;;;20.30;94.90;;;;;;5092991;28;20036;-90
2022/07/10 12:00:27;;;;;;;4.88;1.00;;;20.20;94.90;;;;;;5058684;28;20032;-90
2022/07/10 12:02:53;;;;;;;5.40;0.70;;;19.60;94.80;;;;;;5058919;28;20025;-90
2022/07/10 12:05:38;;;;;;;1.77;0.68;;;20.10;95.60;;;;;;5075752;28;20387;-88
2022/07/10 12:08:04;;;;;;;4.38;0.73;;;20.80;94.60;;;;;;5059229;28;20029;-91
2022/07/10 12:10:32;;;;;;;3.17;0.70;;;20.60;93.40;;;;;;5075890;28;20028;-91
2022/07/10 12:13:14;;;;;;;1.80;0.90;;;20.20;95.00;;;;;;5058987;28;20464;-90
2022/07/10 12:15:42;;;;;;;3.65;0.77;;;19.90;94.50;;;;;;5058939;28;20031;-91
2022/07/10 12:18:19;;;;;;;4.60;0.90;;;20.40;94.70;;;;;;5058804;28;20036;-90
2022/07/10 12:20:47;;;;;;;6.32;1.23;;;21.20;93.50;;;;;;5076156;28;20025;-91
2022/07/10 12:23:18;;;;;;;1.55;0.70;;;21.50;93.20;;;;;;5058931;28;20127;-90
2022/07/10 12:25:45;;;;;;;6.65;1.08;;;20.70;93.30;;;;;;5076219;28;20028;-90
2022/07/10 12:28:12;;;;;;;4.38;1.58;;;20.30;93.70;;;;;;5092377;28;20032;-89
2022/07/10 12:30:51;;;;;;;3.42;1.13;;;19.80;95.10;;;;;;5058431;28;20033;-89
2022/07/10 12:33:20;;;;;;;3.72;1.00;;;20.30;95.50;;;;;;5058421;28;20047;-88
2022/07/10 12:35:46;;;;;;;3.90;0.90;;;19.80;94.00;;;;;;5074766;28;20024;-89
2022/07/10 12:38:26;;;;;;;1.73;0.90;;;19.60;94.90;;;;;;5058438;28;20028;-91
2022/07/10 12:41:06;;;;;;;6.05;1.38;;;19.50;94.90;;;;;;5059447;28;20070;-90
2022/07/10 12:43:31;;;;;;;2.85;0.95;;;19.30;95.60;;;;;;5059896;28;20036;-92
2022/07/10 12:46:27;;;;;;;1.23;0.90;;;20.20;94.60;;;;;;5059418;28;20375;-93
2022/07/10 12:49:10;;;;;;;3.85;0.88;;;21.40;93.00;;;;;;5063037;28;20086;-90
2022/07/10 12:51:45;;;;;;;6.10;1.10;;;22.50;91.90;;;;;;5076491;28;20553;-91
2022/07/10 12:54:30;;;;;;;5.32;1.30;;;22.60;92.40;;;;;;5060274;28;20060;-92
2022/07/10 12:57:02;;;;;;;4.82;1.40;;;22.00;90.90;;;;;;5059556;28;20036;-91
2022/07/10 12:59:29;;;;;;;6.78;0.80;;;21.80;91.80;;;;;;5092064;28;20028;-91
2022/07/10 13:01:55;;;;;;;4.50;1.25;;;21.70;92.50;;;;;;5059046;28;20127;-92
2022/07/10 13:04:26;;;;;;;5.43;1.50;;;20.90;92.80;;;;;;5059866;28;20060;-92
2022/07/10 13:06:53;;;;;;;3.47;1.00;;;20.70;92.20;;;;;;5059549;28;20379;-90
2022/07/10 13:09:28;;;;;;;4.20;1.15;;;21.70;93.10;;;;;;5058602;28;20484;-91
2022/07/10 13:11:54;;;;;;;3.95;1.17;;;22.50;90.80;;;;;;5059316;28;20040;-90
2022/07/10 13:14:20;;;;;;;5.32;0.80;;;22.40;90.90;;;;;;5059542;28;20043;-90